createdAt,value
2022-11-13T00:01:25.031Z,20.83
2022-11-13T00:03:52.115Z,19.67
2022-11-13T00:06:20.225Z,20.50
2022-11-13T00:08:48.059Z,17.77
2022-11-13T00:11:20.115Z,20.17
2022-11-13T00:13:49.137Z,15.17
2022-11-13T00:16:20.953Z,16.37
2022-11-13T00:18:48.436Z,18.60
2022-11-13T00:21:25.429Z,20.23
2022-11-13T00:23:53.813Z,19.60
2022-11-13T00:26:31.049Z,18.20
2022-11-13T00:29:01.808Z,15.73
2022-11-13T00:31:30.101Z,20.33
2022-11-13T00:34:19.507Z,20.67
2022-11-13T00:36:46.840Z,19.40
2022-11-13T00:39:13.936Z,13.33
2022-11-13T00:41:40.979Z,18.67
2022-11-13T00:44:08.274Z,18.53
2022-11-13T00:46:38.073Z,15.97
2022-11-13T00:49:05.338Z,14.83
2022-11-13T00:51:32.777Z,19.00
2022-11-13T00:53:59.752Z,18.30
2022-11-13T00:56:27.157Z,12.10
2022-11-13T00:58:54.129Z,14.83
2022-11-13T01:01:22.052Z,16.33
2022-11-13T01:03:49.276Z,15.67
2022-11-13T01:06:27.037Z,13.97
2022-11-13T01:08:59.877Z,17.60
2022-11-13T01:11:30.054Z,20.23
2022-11-13T01:13:57.991Z,15.57
2022-11-13T01:16:27.835Z,17.60
2022-11-13T01:18:56.067Z,12.87
2022-11-13T01:21:27.358Z,12.97
2022-11-13T01:23:56.399Z,15.13
2022-11-13T01:26:29.997Z,19.00
2022-11-13T01:28:59.390Z,18.37
2022-11-13T01:31:31.115Z,19.20
2022-11-13T01:33:58.906Z,17.80
2022-11-13T01:36:28.658Z,18.27
2022-11-13T01:38:56.194Z,15.77
2022-11-13T01:41:33.607Z,15.40
2022-11-13T01:44:01.493Z,17.73
2022-11-13T01:46:35.124Z,15.70
2022-11-13T01:49:15.931Z,13.70
2022-11-13T01:52:40.935Z,16.10
2022-11-13T01:55:16.078Z,16.00
2022-11-13T01:57:43.169Z,16.57
2022-11-13T02:00:12.623Z,17.13
2022-11-13T02:02:39.718Z,17.37
2022-11-13T02:05:09.146Z,15.97
2022-11-13T02:07:36.143Z,16.73
2022-11-13T02:10:03.313Z,15.00
2022-11-13T02:12:42.360Z,16.37
2022-11-13T02:15:10.825Z,14.63
2022-11-13T02:17:50.364Z,13.40
2022-11-13T02:20:29.559Z,15.47
2022-11-13T02:23:30.000Z,15.53
2022-11-13T02:25:57.614Z,15.20
2022-11-13T02:28:24.633Z,13.93
2022-11-13T02:30:51.708Z,14.23
2022-11-13T02:33:33.064Z,13.80
2022-11-13T02:36:00.510Z,13.97
2022-11-13T02:38:28.038Z,13.20
2022-11-13T02:40:55.377Z,13.60
2022-11-13T02:43:22.384Z,13.53
2022-11-13T02:45:49.407Z,11.63
2022-11-13T02:48:16.427Z,11.80
2022-11-13T02:50:43.809Z,12.83
2022-11-13T02:53:11.024Z,9.77
2022-11-13T02:55:38.261Z,11.83
2022-11-13T02:58:05.374Z,10.33
2022-11-13T03:00:32.603Z,11.63
2022-11-13T03:02:59.667Z,11.93
2022-11-13T03:05:26.690Z,11.33
2022-11-13T03:07:53.876Z,11.43
2022-11-13T03:10:20.863Z,11.67
2022-11-13T03:12:47.864Z,11.60
2022-11-13T03:15:14.956Z,10.33
2022-11-13T03:17:41.976Z,12.60
2022-11-13T03:20:09.539Z,12.50
2022-11-13T03:22:36.547Z,12.00
2022-11-13T03:25:09.908Z,11.47
2022-11-13T03:27:37.801Z,11.93
2022-11-13T03:30:06.189Z,12.53
2022-11-13T03:32:33.176Z,11.90
2022-11-13T03:35:00.145Z,10.90
2022-11-13T03:37:27.192Z,10.97
2022-11-13T03:39:54.146Z,9.80
2022-11-13T03:42:21.099Z,10.47
2022-11-13T03:44:48.157Z,9.53
2022-11-13T03:47:15.642Z,9.67
2022-11-13T03:49:42.625Z,9.97
2022-11-13T03:52:09.848Z,11.00
2022-11-13T03:54:36.797Z,10.27
2022-11-13T03:57:04.192Z,9.97
2022-11-13T03:59:31.177Z,11.17
2022-11-13T04:01:58.174Z,11.67
2022-11-13T04:04:25.186Z,11.10
2022-11-13T04:06:52.284Z,12.00
2022-11-13T04:09:19.360Z,11.90
2022-11-13T04:11:46.335Z,10.40
2022-11-13T04:14:13.424Z,9.70
2022-11-13T04:16:40.553Z,10.13
2022-11-13T04:19:07.563Z,8.57
2022-11-13T04:21:34.681Z,9.13
2022-11-13T04:24:01.699Z,9.93
2022-11-13T04:26:28.721Z,9.20
2022-11-13T04:28:55.733Z,9.13
2022-11-13T04:31:22.928Z,9.67
2022-11-13T04:33:49.929Z,9.63
2022-11-13T04:36:17.015Z,8.33
2022-11-13T04:38:44.002Z,8.97
2022-11-13T04:41:32.406Z,9.50
2022-11-13T04:43:59.487Z,8.70
2022-11-13T04:46:26.512Z,10.07
2022-11-13T04:48:53.483Z,8.70
2022-11-13T04:51:20.554Z,7.90
2022-11-13T04:53:47.640Z,8.47
2022-11-13T04:56:14.618Z,7.57
2022-11-13T04:58:41.565Z,9.77
2022-11-13T05:01:08.530Z,10.67
2022-11-13T05:03:35.723Z,8.50
2022-11-13T05:06:08.625Z,9.47
2022-11-13T05:08:36.331Z,9.83
2022-11-13T05:11:04.217Z,11.27
2022-11-13T05:13:36.427Z,9.63
2022-11-13T05:16:08.469Z,9.47
2022-11-13T05:18:37.339Z,9.07
2022-11-13T05:21:07.580Z,9.00
2022-11-13T05:23:35.409Z,10.20
2022-11-13T05:26:13.151Z,10.43
2022-11-13T05:28:40.512Z,10.63
2022-11-13T05:31:18.054Z,9.90
2022-11-13T05:33:49.648Z,11.20
2022-11-13T05:36:19.527Z,11.33
2022-11-13T05:38:46.911Z,9.60
2022-11-13T05:41:22.388Z,10.17
2022-11-13T05:43:53.738Z,10.47
2022-11-13T05:46:28.221Z,11.23
2022-11-13T05:48:59.386Z,11.07
2022-11-13T05:51:31.509Z,11.90
2022-11-13T05:53:59.577Z,10.33
2022-11-13T05:56:34.647Z,12.70
2022-11-13T05:59:03.565Z,11.13
2022-11-13T06:01:38.956Z,10.40
2022-11-13T06:04:07.993Z,9.47
2022-11-13T06:06:35.371Z,10.53
2022-11-13T06:09:06.127Z,12.57
2022-11-13T06:11:33.227Z,12.27
2022-11-13T06:14:00.887Z,11.43
2022-11-13T06:16:34.846Z,11.77
2022-11-13T06:19:05.787Z,10.50
2022-11-13T06:21:36.602Z,11.30
2022-11-13T06:24:04.021Z,10.00
2022-11-13T06:26:35.623Z,10.83
2022-11-13T06:29:07.214Z,9.57
2022-11-13T06:31:36.808Z,13.13
2022-11-13T06:34:05.452Z,13.37
2022-11-13T06:36:37.150Z,12.20
2022-11-13T06:39:09.516Z,12.03
2022-11-13T06:41:39.349Z,13.27
2022-11-13T06:44:06.450Z,13.13
2022-11-13T06:46:33.547Z,11.03
2022-11-13T06:49:00.665Z,11.20
2022-11-13T06:51:31.764Z,11.93
2022-11-13T06:53:58.850Z,12.80
2022-11-13T06:56:26.677Z,13.50
2022-11-13T06:58:56.014Z,12.37
2022-11-13T07:01:26.143Z,13.10
2022-11-13T07:03:53.969Z,12.37
2022-11-13T07:06:24.349Z,11.87
2022-11-13T07:08:51.867Z,11.57
2022-11-13T07:11:22.421Z,11.13
2022-11-13T07:13:50.509Z,11.37
2022-11-13T07:16:18.589Z,11.87
2022-11-13T07:18:53.530Z,10.70
2022-11-13T07:21:22.266Z,12.60
2022-11-13T07:23:50.821Z,11.97
2022-11-13T07:26:19.206Z,12.83
2022-11-13T07:28:47.730Z,12.43
2022-11-13T07:31:17.453Z,12.30
2022-11-13T07:33:44.541Z,13.10
2022-11-13T07:36:11.946Z,12.97
2022-11-13T07:38:38.971Z,13.23
2022-11-13T07:41:06.619Z,13.93
2022-11-13T07:43:35.427Z,13.23
2022-11-13T07:46:02.743Z,12.40
2022-11-13T07:48:30.524Z,11.80
2022-11-13T07:51:02.434Z,13.33
2022-11-13T07:53:30.525Z,12.87
2022-11-13T07:56:02.719Z,11.27
2022-11-13T07:58:31.039Z,11.60
2022-11-13T08:01:04.803Z,11.57
2022-11-13T08:03:32.769Z,10.10
2022-11-13T08:06:07.182Z,10.37
2022-11-13T08:08:35.215Z,8.70
2022-11-13T08:11:08.814Z,10.00
2022-11-13T08:13:36.988Z,9.70
2022-11-13T08:16:05.302Z,9.10
2022-11-13T08:18:32.846Z,8.93
2022-11-13T08:21:05.157Z,8.43
2022-11-13T08:23:33.430Z,7.90
2022-11-13T08:26:06.480Z,7.90
2022-11-13T08:28:35.625Z,8.07
2022-11-13T08:31:03.754Z,8.47
2022-11-13T08:33:32.461Z,8.07
2022-11-13T08:36:00.792Z,8.10
2022-11-13T08:38:28.178Z,8.27
2022-11-13T08:41:05.783Z,7.57
2022-11-13T08:43:34.450Z,7.27
2022-11-13T08:46:02.353Z,7.77
2022-11-13T08:48:29.732Z,7.50
2022-11-13T08:50:57.785Z,8.60
2022-11-13T08:53:25.909Z,8.00
2022-11-13T08:55:53.058Z,9.40
2022-11-13T08:58:20.079Z,8.70
2022-11-13T09:00:47.423Z,11.33
2022-11-13T09:03:14.830Z,11.47
2022-11-13T09:05:41.837Z,12.07
2022-11-13T09:08:16.229Z,11.37
2022-11-13T09:10:43.356Z,11.50
2022-11-13T09:13:11.866Z,13.77
2022-11-13T09:15:39.976Z,14.40
2022-11-13T09:18:07.285Z,13.30
2022-11-13T09:20:35.141Z,13.37
2022-11-13T09:23:07.097Z,14.57
2022-11-13T09:25:38.084Z,13.60
2022-11-13T09:28:07.199Z,13.93
2022-11-13T09:30:34.668Z,14.83
2022-11-13T09:33:01.983Z,13.73
2022-11-13T09:35:36.995Z,15.57
2022-11-13T09:38:11.280Z,15.37
2022-11-13T09:41:14.912Z,13.90
2022-11-13T09:44:00.320Z,14.97
2022-11-13T09:46:55.340Z,15.70
2022-11-13T09:49:38.362Z,15.53
2022-11-13T09:52:24.255Z,16.80
2022-11-13T09:54:51.616Z,13.83
2022-11-13T09:57:31.428Z,14.80
2022-11-13T10:00:27.077Z,13.90
2022-11-13T10:06:58.518Z,15.40
2022-11-13T10:10:30.432Z,15.00
2022-11-13T10:13:00.076Z,14.13
2022-11-13T10:15:28.101Z,14.03
2022-11-13T10:18:30.642Z,27.00
2022-11-13T10:21:17.910Z,14.60
2022-11-13T10:23:55.096Z,17.33
2022-11-13T10:26:29.380Z,15.87
2022-11-13T10:29:18.868Z,17.00
2022-11-13T10:31:51.031Z,21.43
2022-11-13T10:34:19.730Z,16.60
2022-11-13T10:37:38.862Z,14.17
2022-11-13T10:40:06.841Z,15.47
2022-11-13T10:42:41.284Z,13.60
2022-11-13T10:45:22.571Z,14.10
2022-11-13T10:48:04.102Z,15.37
2022-11-13T10:50:33.481Z,14.53
2022-11-13T10:53:00.567Z,13.97
2022-11-13T10:55:41.677Z,14.80
2022-11-13T10:58:18.900Z,25.80
2022-11-13T11:00:49.697Z,15.13
2022-11-13T11:03:23.565Z,16.00
2022-11-13T11:06:04.130Z,14.70
2022-11-13T11:08:36.054Z,14.90
2022-11-13T11:11:32.578Z,15.87
2022-11-13T11:14:28.316Z,14.63
2022-11-13T11:16:56.467Z,13.87
2022-11-13T11:19:30.909Z,13.10
2022-11-13T11:22:20.816Z,13.27
2022-11-13T11:25:03.974Z,14.20
2022-11-13T11:28:00.120Z,14.07
2022-11-13T11:30:39.995Z,13.40
2022-11-13T11:33:47.298Z,12.57
2022-11-13T11:36:46.699Z,13.83
2022-11-13T11:39:19.380Z,13.13
2022-11-13T11:42:33.545Z,13.63
2022-11-13T11:45:40.741Z,12.23
2022-11-13T11:48:24.238Z,11.93
2022-11-13T11:51:34.768Z,13.17
2022-11-13T11:54:54.193Z,12.87
2022-11-13T11:58:29.139Z,15.23
2022-11-13T12:01:40.986Z,13.20
2022-11-13T12:04:54.745Z,13.27
2022-11-13T12:07:58.582Z,13.70
2022-11-13T12:10:56.769Z,13.67
2022-11-13T12:13:33.724Z,12.80
2022-11-13T12:16:14.935Z,11.97
2022-11-13T12:19:10.960Z,13.10
2022-11-13T12:22:17.881Z,12.27
2022-11-13T12:25:11.635Z,12.93
2022-11-13T12:29:05.615Z,12.73
2022-11-13T12:32:18.912Z,11.87
2022-11-13T12:34:55.324Z,12.77
2022-11-13T12:38:29.236Z,12.57
2022-11-13T12:41:45.686Z,13.47
2022-11-13T12:44:27.601Z,11.97
2022-11-13T12:47:00.255Z,12.77
2022-11-13T12:49:35.751Z,13.93
2022-11-13T12:52:20.471Z,12.27
2022-11-13T12:54:47.807Z,12.33
2022-11-13T12:57:15.569Z,13.10
2022-11-13T13:00:00.579Z,11.07
2022-11-13T13:03:11.012Z,10.90
2022-11-13T13:06:22.900Z,10.53
2022-11-13T13:10:12.127Z,10.70
2022-11-13T13:13:23.982Z,11.13
2022-11-13T13:16:02.684Z,11.00
2022-11-13T13:18:38.345Z,11.10
2022-11-13T13:21:20.435Z,11.83
2022-11-13T13:24:00.687Z,11.23
2022-11-13T13:26:44.348Z,11.43
2022-11-13T13:29:30.663Z,11.30
2022-11-13T13:32:23.661Z,12.43
2022-11-13T13:35:24.319Z,11.50
2022-11-13T13:38:32.890Z,11.00
2022-11-13T13:41:58.508Z,11.60
2022-11-13T13:45:35.971Z,12.20
2022-11-13T13:48:08.837Z,13.43
2022-11-13T13:50:47.138Z,16.07
2022-11-13T13:53:26.589Z,13.47
2022-11-13T13:55:56.641Z,13.67
2022-11-13T13:58:35.763Z,14.27
2022-11-13T14:01:18.949Z,13.83
2022-11-13T14:03:47.143Z,12.53
2022-11-13T14:06:23.661Z,15.17
2022-11-13T14:08:50.880Z,20.53
2022-11-13T14:11:32.332Z,23.07
2022-11-13T14:14:26.024Z,21.37
2022-11-13T14:17:00.499Z,31.07
2022-11-13T14:19:28.215Z,27.70
2022-11-13T14:22:01.837Z,16.93
2022-11-13T14:24:43.641Z,16.33
2022-11-13T14:27:24.254Z,16.73
2022-11-13T14:29:59.927Z,19.73
2022-11-13T14:32:42.964Z,15.50
2022-11-13T14:35:24.369Z,13.83
2022-11-13T14:37:54.835Z,18.37
2022-11-13T14:40:32.350Z,14.43
2022-11-13T14:43:07.484Z,15.53
2022-11-13T14:45:34.786Z,15.37
2022-11-13T14:48:25.981Z,14.27
2022-11-13T14:51:06.895Z,14.37
2022-11-13T14:53:42.307Z,14.57
2022-11-13T14:56:12.077Z,14.80
2022-11-13T14:58:47.180Z,15.87
2022-11-13T15:01:22.418Z,14.80
2022-11-13T15:03:52.083Z,15.77
2022-11-13T15:06:36.999Z,16.50
2022-11-13T15:09:13.543Z,19.57
2022-11-13T15:11:40.806Z,16.00
2022-11-13T15:14:19.349Z,15.53
2022-11-13T15:16:48.742Z,15.53
2022-11-13T15:19:38.188Z,15.73
2022-11-13T15:22:26.447Z,16.77
2022-11-13T15:24:54.054Z,17.63
2022-11-13T15:27:21.041Z,16.77
2022-11-13T15:29:48.747Z,19.40
2022-11-13T15:32:16.276Z,15.90
2022-11-13T15:34:43.683Z,16.20
2022-11-13T15:37:16.781Z,19.20
2022-11-13T15:39:44.128Z,17.07
2022-11-13T15:42:27.474Z,17.60
2022-11-13T15:44:54.705Z,21.13
2022-11-13T15:47:28.832Z,18.23
2022-11-13T15:50:15.164Z,19.30
2022-11-13T15:52:50.537Z,20.60
2022-11-13T15:55:31.615Z,18.57
2022-11-13T15:57:59.165Z,20.10
2022-11-13T16:00:29.127Z,20.87
2022-11-13T16:02:57.652Z,22.97
2022-11-13T16:05:29.312Z,22.63
2022-11-13T16:07:57.607Z,24.87
2022-11-13T16:10:25.946Z,24.13
2022-11-13T16:12:53.625Z,21.03
2022-11-13T16:15:23.766Z,21.60
2022-11-13T16:17:55.568Z,23.77
2022-11-13T16:20:22.760Z,23.37
2022-11-13T16:22:50.669Z,23.70
2022-11-13T16:25:21.385Z,22.37
2022-11-13T16:27:48.947Z,23.00
2022-11-13T16:30:21.201Z,26.50
2022-11-13T16:32:48.946Z,22.43
2022-11-13T16:35:19.462Z,22.57
2022-11-13T16:37:46.665Z,22.67
2022-11-13T16:40:26.447Z,22.83
2022-11-13T16:42:54.169Z,22.97
2022-11-13T16:45:22.400Z,24.53
2022-11-13T16:47:50.766Z,24.73
2022-11-13T16:50:28.607Z,22.03
2022-11-13T16:52:56.558Z,25.43
2022-11-13T16:55:24.397Z,23.43
2022-11-13T17:01:01.559Z,23.37
2022-11-13T17:04:36.375Z,25.83
2022-11-13T17:06:43.971Z,24.77
2022-11-13T17:10:16.604Z,24.23
2022-11-13T17:13:40.949Z,22.67
2022-11-13T17:16:02.103Z,21.17
2022-11-13T17:18:34.352Z,22.17
2022-11-13T17:21:12.369Z,20.97
2022-11-13T17:24:11.735Z,22.37
2022-11-13T17:26:45.755Z,21.47
2022-11-13T17:29:19.252Z,21.37
2022-11-13T17:31:53.028Z,23.13
2022-11-13T17:34:20.071Z,21.17
2022-11-13T17:36:47.765Z,21.63
2022-11-13T17:39:15.417Z,20.40
2022-11-13T17:41:42.411Z,21.73
2022-11-13T17:44:12.233Z,21.03
2022-11-13T17:46:55.070Z,22.60
2022-11-13T17:49:22.587Z,20.53
2022-11-13T17:51:56.073Z,21.57
2022-11-13T17:54:25.172Z,21.43
2022-11-13T17:56:52.833Z,22.57
2022-11-13T17:59:22.987Z,20.50
2022-11-13T18:01:50.491Z,20.57
2022-11-13T18:04:17.501Z,19.30
2022-11-13T18:06:44.812Z,19.83
2022-11-13T18:09:12.554Z,19.73
2022-11-13T18:11:39.680Z,19.73
2022-11-13T18:14:06.956Z,20.83
2022-11-13T18:16:34.712Z,20.60
2022-11-13T18:19:06.964Z,18.47
2022-11-13T18:21:40.519Z,19.53
2022-11-13T18:24:19.327Z,20.23
2022-11-13T18:26:56.103Z,18.70
2022-11-13T18:29:38.489Z,18.97
2022-11-13T18:32:05.619Z,18.63
2022-11-13T18:34:32.688Z,19.23
2022-11-13T18:37:00.390Z,18.93
2022-11-13T18:39:27.910Z,18.87
2022-11-13T18:42:14.958Z,18.73
2022-11-13T18:44:45.306Z,17.63
2022-11-13T18:47:12.631Z,17.80
2022-11-13T18:49:40.119Z,17.73
2022-11-13T18:52:10.458Z,18.93
2022-11-13T18:54:38.066Z,18.60
2022-11-13T18:57:05.627Z,19.90
2022-11-13T18:59:33.197Z,19.67
2022-11-13T19:02:00.708Z,18.90
2022-11-13T19:04:27.951Z,19.23
2022-11-13T19:06:55.558Z,21.30
2022-11-13T19:09:22.979Z,17.70
2022-11-13T19:11:54.392Z,18.13
2022-11-13T19:14:21.787Z,18.20
2022-11-13T19:16:49.015Z,18.07
2022-11-13T19:19:21.401Z,18.87
2022-11-13T19:21:49.221Z,19.93
2022-11-13T19:24:17.309Z,18.97
2022-11-13T19:26:46.179Z,18.77
2022-11-13T19:29:27.325Z,19.87
2022-11-13T19:31:56.961Z,18.97
2022-11-13T19:34:26.084Z,20.93
2022-11-13T19:36:54.424Z,21.23
2022-11-13T19:39:29.214Z,19.13
2022-11-13T19:41:56.828Z,21.50
2022-11-13T19:44:27.769Z,19.57
2022-11-13T19:46:58.286Z,19.70
2022-11-13T19:49:43.899Z,22.17
2022-11-13T19:52:17.266Z,21.03
2022-11-13T19:54:45.050Z,21.13
2022-11-13T19:57:18.324Z,20.30
2022-11-13T19:59:45.765Z,20.10
2022-11-13T20:02:14.229Z,18.47
2022-11-13T20:04:47.390Z,18.83
2022-11-13T20:07:16.076Z,19.30
2022-11-13T20:09:43.557Z,20.93
2022-11-13T20:12:10.879Z,18.07
2022-11-13T20:14:38.696Z,18.27
2022-11-13T20:17:12.446Z,22.07
2022-11-13T20:19:39.729Z,19.40
2022-11-13T20:22:06.846Z,19.33
2022-11-13T20:24:37.197Z,21.90
2022-11-13T20:27:13.480Z,19.93
2022-11-13T20:29:43.629Z,19.87
2022-11-13T20:32:10.878Z,21.40
2022-11-13T20:34:47.571Z,19.77
2022-11-13T20:37:15.023Z,18.80
2022-11-13T20:39:42.434Z,19.00
2022-11-13T20:42:14.812Z,18.50
2022-11-13T20:44:41.815Z,19.10
2022-11-13T20:47:12.099Z,20.37
2022-11-13T20:49:39.756Z,20.93
2022-11-13T20:52:12.652Z,19.80
2022-11-13T20:54:42.945Z,20.77
2022-11-13T20:57:13.548Z,21.07
2022-11-13T20:59:43.181Z,21.10
2022-11-13T21:02:12.783Z,21.63
2022-11-13T21:07:31.653Z,19.67
2022-11-13T21:09:58.946Z,20.83
2022-11-13T21:12:26.683Z,20.30
2022-11-13T21:14:53.699Z,20.03
2022-11-13T21:17:20.671Z,20.67
2022-11-13T21:19:48.016Z,20.27
2022-11-13T21:25:33.615Z,21.00
2022-11-13T21:28:43.492Z,19.77
2022-11-13T21:31:34.437Z,21.60
2022-11-13T21:34:01.628Z,20.73
2022-11-13T21:36:33.305Z,20.13
2022-11-13T21:39:06.599Z,22.30
2022-11-13T21:41:39.685Z,20.40
2022-11-13T21:44:10.802Z,20.07
2022-11-13T21:46:45.599Z,21.07
2022-11-13T21:49:17.978Z,21.33
2022-11-13T21:51:47.725Z,22.20
2022-11-13T21:54:15.412Z,25.13
2022-11-13T21:56:51.910Z,22.83
2022-11-13T21:59:19.071Z,22.80
2022-11-13T22:01:58.887Z,22.30
2022-11-13T22:04:26.085Z,22.60
2022-11-13T22:06:54.597Z,24.67
2022-11-13T22:09:40.998Z,24.03
2022-11-13T22:12:12.230Z,23.13
2022-11-13T22:14:44.265Z,25.37
2022-11-13T22:17:25.303Z,25.67
2022-11-13T22:20:05.216Z,23.43
2022-11-13T22:22:52.522Z,25.07
2022-11-13T22:25:34.624Z,26.90
2022-11-13T22:28:01.740Z,25.87
2022-11-13T22:30:48.978Z,25.50
2022-11-13T22:33:52.475Z,26.63
2022-11-13T22:36:34.192Z,25.57
2022-11-13T22:39:08.056Z,26.73
2022-11-13T22:41:36.722Z,28.57
2022-11-13T22:44:28.563Z,26.90
2022-11-13T22:47:02.167Z,29.27
2022-11-13T22:49:33.080Z,29.47
2022-11-13T22:52:21.847Z,29.30
2022-11-13T22:54:54.144Z,29.43
2022-11-13T22:57:36.977Z,30.27
2022-11-13T23:00:21.282Z,29.07
2022-11-13T23:02:48.435Z,30.73
2022-11-13T23:05:18.878Z,30.03
2022-11-13T23:07:55.113Z,33.57
2022-11-13T23:10:25.330Z,31.40
2022-11-13T23:12:56.088Z,30.77
2022-11-13T23:15:36.262Z,33.97
2022-11-13T23:18:05.874Z,32.87
2022-11-13T23:20:56.050Z,34.53
2022-11-13T23:23:23.157Z,33.87
2022-11-13T23:25:53.306Z,30.30
2022-11-13T23:28:30.203Z,31.50
2022-11-13T23:30:57.744Z,32.00
2022-11-13T23:36:18.118Z,34.07
2022-11-13T23:38:48.401Z,34.00
2022-11-13T23:41:15.729Z,33.43
2022-11-13T23:46:30.114Z,31.97
2022-11-13T23:49:00.637Z,34.27
2022-11-13T23:51:33.701Z,35.63
2022-11-13T23:54:06.321Z,34.03
2022-11-13T23:56:42.728Z,32.83
2022-11-13T23:59:13.835Z,35.17
